sensor_id;sensor_type;location;lat;lon;timestamp;pressure;altitude;pressure_sealevel;temperature;humidity
20860;BME280;10590;48.154;11.514;2023-12-20T00:04:45;95678.34;;;5.67;54.36
20860;BME280;10590;48.154;11.514;2023-12-20T00:10:08;95682.00;;;5.71;54.94
20860;BME280;10590;48.154;11.514;2023-12-20T00:15:31;95678.28;;;5.72;55.55
20860;BME280;10590;48.154;11.514;2023-12-20T00:20:53;95671.69;;;5.69;56.22
20860;BME280;10590;48.154;11.514;2023-12-20T00:26:15;95668.59;;;5.86;55.50
20860;BME280;10590;48.154;11.514;2023-12-20T00:31:38;95683.25;;;6.02;53.92
20860;BME280;10590;48.154;11.514;2023-12-20T00:37:00;95675.50;;;6.06;54.42
20860;BME280;10590;48.154;11.514;2023-12-20T00:42:22;95662.72;;;6.13;52.29
20860;BME280;10590;48.154;11.514;2023-12-20T00:47:45;95652.72;;;6.10;52.56
20860;BME280;10590;48.154;11.514;2023-12-20T00:53:07;95651.56;;;6.16;51.94
20860;BME280;10590;48.154;11.514;2023-12-20T00:58:28;95635.66;;;6.16;52.04
20860;BME280;10590;48.154;11.514;2023-12-20T01:03:51;95635.25;;;6.09;51.86
20860;BME280;10590;48.154;11.514;2023-12-20T01:09:13;95615.25;;;6.17;51.90
20860;BME280;10590;48.154;11.514;2023-12-20T01:14:35;95631.94;;;6.17;51.74
20860;BME280;10590;48.154;11.514;2023-12-20T01:19:58;95627.16;;;6.19;52.23
20860;BME280;10590;48.154;11.514;2023-12-20T01:25:19;95612.97;;;6.29;51.67
20860;BME280;10590;48.154;11.514;2023-12-20T01:30:41;95600.16;;;6.17;52.59
20860;BME280;10590;48.154;11.514;2023-12-20T01:36:04;95601.59;;;6.28;53.00
20860;BME280;10590;48.154;11.514;2023-12-20T01:41:26;95603.72;;;6.26;53.41
20860;BME280;10590;48.154;11.514;2023-12-20T01:46:48;95598.16;;;6.28;53.49
20860;BME280;10590;48.154;11.514;2023-12-20T01:52:11;95586.19;;;6.30;53.45
20860;BME280;10590;48.154;11.514;2023-12-20T01:57:33;95575.59;;;6.30;53.61
20860;BME280;10590;48.154;11.514;2023-12-20T02:02:55;95563.34;;;6.34;53.64
20860;BME280;10590;48.154;11.514;2023-12-20T02:08:18;95542.06;;;6.39;53.16
20860;BME280;10590;48.154;11.514;2023-12-20T02:13:40;95537.31;;;6.36;53.75
20860;BME280;10590;48.154;11.514;2023-12-20T02:19:03;95531.66;;;6.43;53.40
20860;BME280;10590;48.154;11.514;2023-12-20T02:24:26;95533.81;;;6.41;53.56
20860;BME280;10590;48.154;11.514;2023-12-20T02:29:49;95524.06;;;6.36;54.35
20860;BME280;10590;48.154;11.514;2023-12-20T02:35:11;95529.41;;;6.50;55.22
20860;BME280;10590;48.154;11.514;2023-12-20T02:40:34;95507.84;;;6.57;55.49
20860;BME280;10590;48.154;11.514;2023-12-20T02:45:56;95507.53;;;6.58;56.48
20860;BME280;10590;48.154;11.514;2023-12-20T02:51:18;95506.16;;;6.61;56.75
20860;BME280;10590;48.154;11.514;2023-12-20T02:56:41;95498.72;;;6.63;57.09
20860;BME280;10590;48.154;11.514;2023-12-20T03:02:03;95510.00;;;6.55;58.14
20860;BME280;10590;48.154;11.514;2023-12-20T03:07:25;95518.53;;;6.65;58.28
20860;BME280;10590;48.154;11.514;2023-12-20T03:12:48;95509.41;;;6.58;58.76
20860;BME280;10590;48.154;11.514;2023-12-20T03:18:09;95514.53;;;6.68;59.95
20860;BME280;10590;48.154;11.514;2023-12-20T03:23:31;95520.91;;;6.67;60.69
20860;BME280;10590;48.154;11.514;2023-12-20T03:28:55;95526.50;;;6.65;61.71
20860;BME280;10590;48.154;11.514;2023-12-20T03:34:16;95533.88;;;6.68;62.04
20860;BME280;10590;48.154;11.514;2023-12-20T03:39:38;95541.91;;;6.63;62.84
20860;BME280;10590;48.154;11.514;2023-12-20T03:45:01;95552.91;;;6.57;64.24
20860;BME280;10590;48.154;11.514;2023-12-20T03:50:23;95566.53;;;6.50;65.04
20860;BME280;10590;48.154;11.514;2023-12-20T03:55:44;95572.97;;;6.44;67.77
20860;BME280;10590;48.154;11.514;2023-12-20T04:01:10;95567.13;;;6.28;69.67
20860;BME280;10590;48.154;11.514;2023-12-20T04:06:32;95567.28;;;6.18;71.26
20860;BME280;10590;48.154;11.514;2023-12-20T04:11:54;95565.78;;;6.12;72.79
20860;BME280;10590;48.154;11.514;2023-12-20T04:17:17;95574.94;;;6.01;74.62
20860;BME280;10590;48.154;11.514;2023-12-20T04:22:39;95563.69;;;5.90;76.27
20860;BME280;10590;48.154;11.514;2023-12-20T04:28:00;95558.88;;;5.73;78.52
20860;BME280;10590;48.154;11.514;2023-12-20T04:33:24;95555.56;;;5.63;79.48
20860;BME280;10590;48.154;11.514;2023-12-20T04:38:46;95563.88;;;5.75;79.41
20860;BME280;10590;48.154;11.514;2023-12-20T04:44:07;95578.25;;;5.69;80.32
20860;BME280;10590;48.154;11.514;2023-12-20T04:49:30;95587.19;;;5.54;82.14
20860;BME280;10590;48.154;11.514;2023-12-20T04:54:52;95591.59;;;5.40;84.32
20860;BME280;10590;48.154;11.514;2023-12-20T05:00:14;95607.66;;;5.20;87.62
20860;BME280;10590;48.154;11.514;2023-12-20T05:05:37;95611.56;;;4.98;90.21
20860;BME280;10590;48.154;11.514;2023-12-20T05:10:59;95609.31;;;4.87;92.80
20860;BME280;10590;48.154;11.514;2023-12-20T05:16:21;95616.28;;;4.77;93.85
20860;BME280;10590;48.154;11.514;2023-12-20T05:21:44;95626.38;;;4.70;94.83
20860;BME280;10590;48.154;11.514;2023-12-20T05:27:29;95623.00;;;4.65;96.28
20860;BME280;10590;48.154;11.514;2023-12-20T05:32:53;95636.16;;;4.70;97.21
20860;BME280;10590;48.154;11.514;2023-12-20T05:38:17;95636.25;;;4.60;97.65
20860;BME280;10590;48.154;11.514;2023-12-20T05:43:38;95643.94;;;4.56;97.02
20860;BME280;10590;48.154;11.514;2023-12-20T05:49:00;95651.38;;;4.49;96.75
20860;BME280;10590;48.154;11.514;2023-12-20T05:54:23;95654.63;;;4.41;96.44
20860;BME280;10590;48.154;11.514;2023-12-20T05:59:44;95659.94;;;4.31;95.31
20860;BME280;10590;48.154;11.514;2023-12-20T06:05:06;95670.53;;;4.26;95.15
20860;BME280;10590;48.154;11.514;2023-12-20T06:10:29;95679.53;;;4.20;96.38
20860;BME280;10590;48.154;11.514;2023-12-20T06:15:51;95681.44;;;4.14;96.36
20860;BME280;10590;48.154;11.514;2023-12-20T06:21:13;95694.66;;;4.09;97.35
20860;BME280;10590;48.154;11.514;2023-12-20T06:26:36;95690.72;;;4.01;97.48
20860;BME280;10590;48.154;11.514;2023-12-20T06:31:58;95697.88;;;3.96;97.92
20860;BME280;10590;48.154;11.514;2023-12-20T06:37:19;95706.63;;;3.91;98.18
20860;BME280;10590;48.154;11.514;2023-12-20T06:42:44;95720.34;;;3.88;98.04
20860;BME280;10590;48.154;11.514;2023-12-20T06:48:06;95720.09;;;3.84;98.74
20860;BME280;10590;48.154;11.514;2023-12-20T06:53:28;95731.19;;;3.81;98.67
20860;BME280;10590;48.154;11.514;2023-12-20T06:58:51;95725.94;;;3.76;99.30
20860;BME280;10590;48.154;11.514;2023-12-20T07:04:13;95737.28;;;3.82;99.39
20860;BME280;10590;48.154;11.514;2023-12-20T07:09:34;95748.91;;;3.71;98.74
20860;BME280;10590;48.154;11.514;2023-12-20T07:14:57;95770.53;;;3.78;98.52
20860;BME280;10590;48.154;11.514;2023-12-20T07:20:19;95770.81;;;3.76;97.74
20860;BME280;10590;48.154;11.514;2023-12-20T07:25:40;95775.00;;;3.82;98.13
20860;BME280;10590;48.154;11.514;2023-12-20T07:31:04;95789.78;;;3.78;97.48
20860;BME280;10590;48.154;11.514;2023-12-20T07:36:25;95785.84;;;3.76;97.32
20860;BME280;10590;48.154;11.514;2023-12-20T07:41:47;95785.03;;;3.86;97.39
20860;BME280;10590;48.154;11.514;2023-12-20T07:47:10;95792.69;;;3.82;97.05
20860;BME280;10590;48.154;11.514;2023-12-20T07:52:33;95795.84;;;3.84;96.63
20860;BME280;10590;48.154;11.514;2023-12-20T07:57:55;95797.44;;;3.85;96.41
20860;BME280;10590;48.154;11.514;2023-12-20T08:03:18;95800.06;;;3.90;96.64
20860;BME280;10590;48.154;11.514;2023-12-20T08:08:39;95817.22;;;3.88;96.51
20860;BME280;10590;48.154;11.514;2023-12-20T08:14:01;95814.06;;;3.91;96.22
20860;BME280;10590;48.154;11.514;2023-12-20T08:19:24;95818.31;;;3.76;96.85
20860;BME280;10590;48.154;11.514;2023-12-20T08:24:45;95819.34;;;3.80;97.34
20860;BME280;10590;48.154;11.514;2023-12-20T08:30:09;95811.44;;;3.75;97.60
20860;BME280;10590;48.154;11.514;2023-12-20T08:35:32;95820.69;;;3.78;96.95
20860;BME280;10590;48.154;11.514;2023-12-20T08:40:53;95819.59;;;3.84;96.96
20860;BME280;10590;48.154;11.514;2023-12-20T08:46:15;95817.22;;;3.93;96.23
20860;BME280;10590;48.154;11.514;2023-12-20T08:51:38;95817.47;;;3.96;96.31
20860;BME280;10590;48.154;11.514;2023-12-20T08:57:02;95828.00;;;4.01;96.47
20860;BME280;10590;48.154;11.514;2023-12-20T09:02:26;95815.06;;;4.05;95.77
20860;BME280;10590;48.154;11.514;2023-12-20T09:07:49;95827.72;;;4.13;95.10
20860;BME280;10590;48.154;11.514;2023-12-20T09:13:10;95827.97;;;4.16;95.28
20860;BME280;10590;48.154;11.514;2023-12-20T09:18:32;95831.94;;;4.09;95.12
20860;BME280;10590;48.154;11.514;2023-12-20T09:23:55;95819.28;;;4.11;96.15
20860;BME280;10590;48.154;11.514;2023-12-20T09:29:17;95819.78;;;4.18;95.77
20860;BME280;10590;48.154;11.514;2023-12-20T09:34:39;95822.94;;;4.20;95.47
20860;BME280;10590;48.154;11.514;2023-12-20T09:40:04;95832.44;;;4.21;95.59
20860;BME280;10590;48.154;11.514;2023-12-20T09:45:25;95829.81;;;4.16;95.17
20860;BME280;10590;48.154;11.514;2023-12-20T09:50:48;95828.22;;;4.20;95.62
20860;BME280;10590;48.154;11.514;2023-12-20T09:56:11;95817.66;;;4.20;95.82
20860;BME280;10590;48.154;11.514;2023-12-20T10:01:35;95814.97;;;4.30;94.96
20860;BME280;10590;48.154;11.514;2023-12-20T10:07:01;95800.69;;;4.41;94.02
20860;BME280;10590;48.154;11.514;2023-12-20T10:12:25;95805.88;;;4.62;93.63
20860;BME280;10590;48.154;11.514;2023-12-20T10:17:49;95801.25;;;4.88;93.14
20860;BME280;10590;48.154;11.514;2023-12-20T10:23:10;95797.47;;;4.99;92.51
20860;BME280;10590;48.154;11.514;2023-12-20T10:28:34;95803.81;;;4.98;92.92
20860;BME280;10590;48.154;11.514;2023-12-20T10:33:57;95788.22;;;4.96;94.55
20860;BME280;10590;48.154;11.514;2023-12-20T10:39:19;95790.19;;;4.80;94.92
20860;BME280;10590;48.154;11.514;2023-12-20T10:44:43;95788.06;;;4.83;95.24
20860;BME280;10590;48.154;11.514;2023-12-20T10:50:06;95785.22;;;4.69;94.99
20860;BME280;10590;48.154;11.514;2023-12-20T10:55:29;95774.13;;;4.67;95.47
20860;BME280;10590;48.154;11.514;2023-12-20T11:01:00;95774.69;;;4.64;95.85
20860;BME280;10590;48.154;11.514;2023-12-20T11:06:33;95777.34;;;4.59;96.46
20860;BME280;10590;48.154;11.514;2023-12-20T11:12:03;95775.75;;;4.63;95.58
20860;BME280;10590;48.154;11.514;2023-12-20T11:17:29;95767.50;;;4.69;95.21
20860;BME280;10590;48.154;11.514;2023-12-20T11:22:54;95760.84;;;4.77;94.07
20860;BME280;10590;48.154;11.514;2023-12-20T11:28:20;95755.94;;;4.99;93.02
20860;BME280;10590;48.154;11.514;2023-12-20T11:33:43;95749.59;;;5.00;91.97
20860;BME280;10590;48.154;11.514;2023-12-20T11:39:08;95736.06;;;5.07;91.35
20860;BME280;10590;48.154;11.514;2023-12-20T11:44:30;95734.31;;;5.26;90.02
20860;BME280;10590;48.154;11.514;2023-12-20T11:49:54;95731.16;;;5.53;88.84
20860;BME280;10590;48.154;11.514;2023-12-20T11:55:16;95726.16;;;5.52;88.67
20860;BME280;10590;48.154;11.514;2023-12-20T12:00:38;95726.16;;;5.52;87.83
20860;BME280;10590;48.154;11.514;2023-12-20T12:06:01;95708.56;;;5.37;87.64
20860;BME280;10590;48.154;11.514;2023-12-20T12:11:24;95723.31;;;5.43;86.28
20860;BME280;10590;48.154;11.514;2023-12-20T12:16:46;95712.88;;;5.57;85.29
20860;BME280;10590;48.154;11.514;2023-12-20T12:22:11;95710.94;;;5.62;85.26
20860;BME280;10590;48.154;11.514;2023-12-20T12:27:34;95707.91;;;5.50;85.35
20860;BME280;10590;48.154;11.514;2023-12-20T12:32:56;95709.38;;;5.61;84.68
20860;BME280;10590;48.154;11.514;2023-12-20T12:38:21;95705.09;;;5.65;84.58
20860;BME280;10590;48.154;11.514;2023-12-20T12:43:42;95687.91;;;5.63;83.90
20860;BME280;10590;48.154;11.514;2023-12-20T12:49:04;95684.03;;;5.55;84.83
20860;BME280;10590;48.154;11.514;2023-12-20T12:54:27;95686.69;;;5.55;84.64
20860;BME280;10590;48.154;11.514;2023-12-20T12:59:49;95697.28;;;5.26;87.55
20860;BME280;10590;48.154;11.514;2023-12-20T13:05:10;95708.06;;;4.67;90.68
20860;BME280;10590;48.154;11.514;2023-12-20T13:10:34;95717.78;;;4.27;91.29
20860;BME280;10590;48.154;11.514;2023-12-20T13:15:55;95720.03;;;4.05;91.55
20860;BME280;10590;48.154;11.514;2023-12-20T13:21:17;95705.25;;;3.99;90.99
20860;BME280;10590;48.154;11.514;2023-12-20T13:26:40;95719.50;;;4.03;90.80
20860;BME280;10590;48.154;11.514;2023-12-20T13:32:02;95716.38;;;3.96;89.14
20860;BME280;10590;48.154;11.514;2023-12-20T13:37:24;95739.50;;;4.19;87.61
20860;BME280;10590;48.154;11.514;2023-12-20T13:42:48;95735.06;;;4.04;87.68
20860;BME280;10590;48.154;11.514;2023-12-20T13:48:09;95736.81;;;4.29;86.45
20860;BME280;10590;48.154;11.514;2023-12-20T13:53:31;95731.03;;;4.22;85.79
20860;BME280;10590;48.154;11.514;2023-12-20T13:58:54;95746.91;;;4.12;86.19
20860;BME280;10590;48.154;11.514;2023-12-20T14:04:16;95756.38;;;4.23;85.30
20860;BME280;10590;48.154;11.514;2023-12-20T14:09:37;95742.69;;;4.11;85.19
20860;BME280;10590;48.154;11.514;2023-12-20T14:15:00;95750.84;;;4.20;85.07
20860;BME280;10590;48.154;11.514;2023-12-20T14:20:22;95733.22;;;4.05;85.19
20860;BME280;10590;48.154;11.514;2023-12-20T14:25:44;95754.81;;;4.17;84.67
20860;BME280;10590;48.154;11.514;2023-12-20T14:31:07;95764.34;;;4.13;83.47
20860;BME280;10590;48.154;11.514;2023-12-20T14:36:30;95764.06;;;4.14;84.42
20860;BME280;10590;48.154;11.514;2023-12-20T14:41:52;95775.19;;;4.06;84.35
20860;BME280;10590;48.154;11.514;2023-12-20T14:47:16;95763.56;;;4.12;83.56
20860;BME280;10590;48.154;11.514;2023-12-20T14:52:38;95771.69;;;4.21;82.47
20860;BME280;10590;48.154;11.514;2023-12-20T14:57:59;95772.25;;;4.13;83.83
20860;BME280;10590;48.154;11.514;2023-12-20T15:03:22;95781.00;;;4.08;83.87
20860;BME280;10590;48.154;11.514;2023-12-20T15:08:44;95785.50;;;4.08;84.20
20860;BME280;10590;48.154;11.514;2023-12-20T15:14:06;95771.53;;;3.97;83.45
20860;BME280;10590;48.154;11.514;2023-12-20T15:19:29;95784.44;;;4.09;82.46
20860;BME280;10590;48.154;11.514;2023-12-20T15:24:51;95784.47;;;3.99;79.88
20860;BME280;10590;48.154;11.514;2023-12-20T15:30:14;95764.16;;;3.94;79.77
20860;BME280;10590;48.154;11.514;2023-12-20T15:35:40;95763.34;;;3.94;78.70
20860;BME280;10590;48.154;11.514;2023-12-20T15:41:01;95761.25;;;3.91;78.50
20860;BME280;10590;48.154;11.514;2023-12-20T15:46:23;95751.81;;;3.74;78.62
20860;BME280;10590;48.154;11.514;2023-12-20T15:51:46;95746.03;;;3.62;79.22
20860;BME280;10590;48.154;11.514;2023-12-20T15:57:08;95746.84;;;3.53;79.40
20860;BME280;10590;48.154;11.514;2023-12-20T16:02:30;95748.16;;;3.40;79.64
20860;BME280;10590;48.154;11.514;2023-12-20T16:07:53;95759.22;;;3.42;79.44
20860;BME280;10590;48.154;11.514;2023-12-20T16:13:14;95775.06;;;3.27;79.60
20860;BME280;10590;48.154;11.514;2023-12-20T16:18:36;95777.44;;;3.13;80.04
20860;BME280;10590;48.154;11.514;2023-12-20T16:23:59;95772.97;;;3.13;80.61
20860;BME280;10590;48.154;11.514;2023-12-20T16:29:21;95788.25;;;3.16;80.27
20860;BME280;10590;48.154;11.514;2023-12-20T16:34:43;95787.72;;;3.14;79.40
20860;BME280;10590;48.154;11.514;2023-12-20T16:40:07;95800.13;;;3.24;78.42
20860;BME280;10590;48.154;11.514;2023-12-20T16:45:29;95807.78;;;3.26;78.16
20860;BME280;10590;48.154;11.514;2023-12-20T16:50:51;95808.03;;;3.29;77.52
20860;BME280;10590;48.154;11.514;2023-12-20T16:56:14;95819.09;;;3.26;77.75
20860;BME280;10590;48.154;11.514;2023-12-20T17:01:36;95812.78;;;3.22;77.72
20860;BME280;10590;48.154;11.514;2023-12-20T17:06:57;95802.50;;;3.05;77.98
20860;BME280;10590;48.154;11.514;2023-12-20T17:12:20;95802.47;;;2.95;78.56
20860;BME280;10590;48.154;11.514;2023-12-20T17:17:42;95820.13;;;2.90;79.25
20860;BME280;10590;48.154;11.514;2023-12-20T17:23:03;95827.78;;;2.91;79.47
20860;BME280;10590;48.154;11.514;2023-12-20T17:28:26;95825.16;;;3.11;78.35
20860;BME280;10590;48.154;11.514;2023-12-20T17:33:48;95817.00;;;3.23;76.54
20860;BME280;10590;48.154;11.514;2023-12-20T17:39:11;95808.81;;;3.30;75.13
20860;BME280;10590;48.154;11.514;2023-12-20T17:44:34;95806.44;;;3.38;75.01
20860;BME280;10590;48.154;11.514;2023-12-20T17:49:56;95798.81;;;3.37;73.87
20860;BME280;10590;48.154;11.514;2023-12-20T17:55:18;95809.34;;;3.42;73.87
20860;BME280;10590;48.154;11.514;2023-12-20T18:00:41;95817.00;;;3.43;73.91
20860;BME280;10590;48.154;11.514;2023-12-20T18:06:02;95804.09;;;3.52;72.86
20860;BME280;10590;48.154;11.514;2023-12-20T18:11:24;95803.03;;;3.53;72.55
20860;BME280;10590;48.154;11.514;2023-12-20T18:16:47;95802.50;;;3.51;73.22
20860;BME280;10590;48.154;11.514;2023-12-20T18:22:08;95788.78;;;3.59;72.74
20860;BME280;10590;48.154;11.514;2023-12-20T18:27:30;95814.09;;;3.60;71.12
20860;BME280;10590;48.154;11.514;2023-12-20T18:32:53;95802.75;;;3.60;70.21
20860;BME280;10590;48.154;11.514;2023-12-20T18:38:15;95824.41;;;3.57;70.53
20860;BME280;10590;48.154;11.514;2023-12-20T18:43:37;95827.03;;;3.51;70.53
20860;BME280;10590;48.154;11.514;2023-12-20T18:49:00;95827.00;;;3.46;70.90
20860;BME280;10590;48.154;11.514;2023-12-20T18:54:21;95830.75;;;3.50;71.08
20860;BME280;10590;48.154;11.514;2023-12-20T18:59:43;95841.25;;;3.45;70.90
20860;BME280;10590;48.154;11.514;2023-12-20T19:05:06;95806.72;;;3.32;70.84
20860;BME280;10590;48.154;11.514;2023-12-20T19:10:28;95804.59;;;3.24;71.18
20860;BME280;10590;48.154;11.514;2023-12-20T19:15:50;95797.50;;;3.19;71.69
20860;BME280;10590;48.154;11.514;2023-12-20T19:21:13;95797.22;;;3.20;71.77
20860;BME280;10590;48.154;11.514;2023-12-20T19:26:34;95795.63;;;3.14;72.00
20860;BME280;10590;48.154;11.514;2023-12-20T19:31:56;95802.50;;;3.15;72.20
20860;BME280;10590;48.154;11.514;2023-12-20T19:37:19;95793.00;;;3.19;72.19
20860;BME280;10590;48.154;11.514;2023-12-20T19:42:41;95804.88;;;3.27;72.04
20860;BME280;10590;48.154;11.514;2023-12-20T19:48:04;95790.88;;;3.32;71.72
20860;BME280;10590;48.154;11.514;2023-12-20T19:53:28;95796.16;;;3.37;71.60
20860;BME280;10590;48.154;11.514;2023-12-20T19:58:50;95785.63;;;3.52;71.46
20860;BME280;10590;48.154;11.514;2023-12-20T20:04:11;95778.78;;;3.51;71.61
20860;BME280;10590;48.154;11.514;2023-12-20T20:09:34;95774.53;;;3.65;71.26
20860;BME280;10590;48.154;11.514;2023-12-20T20:14:56;95756.84;;;3.66;71.71
20860;BME280;10590;48.154;11.514;2023-12-20T20:20:17;95760.50;;;3.75;70.92
20860;BME280;10590;48.154;11.514;2023-12-20T20:25:40;95763.41;;;3.73;71.18
20860;BME280;10590;48.154;11.514;2023-12-20T20:31:02;95760.75;;;3.78;71.64
20860;BME280;10590;48.154;11.514;2023-12-20T20:36:24;95762.59;;;3.88;72.87
20860;BME280;10590;48.154;11.514;2023-12-20T20:41:47;95748.84;;;3.91;71.83
20860;BME280;10590;48.154;11.514;2023-12-20T20:47:09;95747.81;;;3.87;71.15
20860;BME280;10590;48.154;11.514;2023-12-20T20:52:32;95746.53;;;3.74;71.05
20860;BME280;10590;48.154;11.514;2023-12-20T20:57:55;95747.84;;;3.72;71.13
20860;BME280;10590;48.154;11.514;2023-12-20T21:03:18;95748.13;;;3.65;71.49
20860;BME280;10590;48.154;11.514;2023-12-20T21:08:40;95747.63;;;3.58;72.48
20860;BME280;10590;48.154;11.514;2023-12-20T21:14:04;95738.13;;;3.62;72.72
20860;BME280;10590;48.154;11.514;2023-12-20T21:19:26;95723.88;;;3.43;73.52
20860;BME280;10590;48.154;11.514;2023-12-20T21:24:47;95742.34;;;3.43;74.13
20860;BME280;10590;48.154;11.514;2023-12-20T21:30:11;95734.97;;;3.35;75.16
20860;BME280;10590;48.154;11.514;2023-12-20T21:35:32;95722.31;;;3.37;75.24
20860;BME280;10590;48.154;11.514;2023-12-20T21:40:55;95712.81;;;3.41;74.51
20860;BME280;10590;48.154;11.514;2023-12-20T21:46:21;95702.03;;;3.32;75.40
20860;BME280;10590;48.154;11.514;2023-12-20T21:51:45;95682.00;;;3.21;76.63
20860;BME280;10590;48.154;11.514;2023-12-20T21:57:07;95679.63;;;3.25;77.14
20860;BME280;10590;48.154;11.514;2023-12-20T22:02:30;95683.84;;;3.20;76.69
20860;BME280;10590;48.154;11.514;2023-12-20T22:07:52;95686.50;;;3.15;76.76
20860;BME280;10590;48.154;11.514;2023-12-20T22:13:13;95680.94;;;3.22;76.54
20860;BME280;10590;48.154;11.514;2023-12-20T22:18:36;95682.00;;;3.21;76.37
20860;BME280;10590;48.154;11.514;2023-12-20T22:23:58;95680.69;;;3.18;76.65
20860;BME280;10590;48.154;11.514;2023-12-20T22:29:19;95676.47;;;3.17;76.21
20860;BME280;10590;48.154;11.514;2023-12-20T22:34:44;95660.09;;;3.26;76.05
20860;BME280;10590;48.154;11.514;2023-12-20T22:40:07;95641.63;;;3.31;76.88
20860;BME280;10590;48.154;11.514;2023-12-20T22:45:29;95634.25;;;3.28;75.10
20860;BME280;10590;48.154;11.514;2023-12-20T22:50:54;95633.75;;;3.26;75.30
20860;BME280;10590;48.154;11.514;2023-12-20T22:56:16;95629.25;;;3.31;74.52
20860;BME280;10590;48.154;11.514;2023-12-20T23:01:41;95615.53;;;3.29;74.40
20860;BME280;10590;48.154;11.514;2023-12-20T23:07:04;95601.53;;;3.34;73.84
20860;BME280;10590;48.154;11.514;2023-12-20T23:12:29;95592.03;;;3.38;73.13
20860;BME280;10590;48.154;11.514;2023-12-20T23:17:52;95584.34;;;3.51;72.04
20860;BME280;10590;48.154;11.514;2023-12-20T23:23:17;95598.03;;;3.59;71.74
20860;BME280;10590;48.154;11.514;2023-12-20T23:28:39;95587.22;;;3.60;71.18
20860;BME280;10590;48.154;11.514;2023-12-20T23:34:02;95559.78;;;3.61;71.30
20860;BME280;10590;48.154;11.514;2023-12-20T23:39:29;95543.66;;;3.63;70.28
20860;BME280;10590;48.154;11.514;2023-12-20T23:44:51;95549.19;;;3.66;70.23
20860;BME280;10590;48.154;11.514;2023-12-20T23:50:12;95531.47;;;3.72;69.72
20860;BME280;10590;48.154;11.514;2023-12-20T23:55:36;95526.47;;;3.70;69.88
